Time;durP1;ratioP1;P1;durP2;ratioP2;P2;SDS_P1;SDS_P2;PMS_P1;PMS_P2;Temp;Humidity;BMP_temperature;BMP_pressure;BME280_temperature;BME280_humidity;BME280_pressure;Samples;Min_cycle;Max_cycle;Signal;HPM_P1;HPM_P2
2024/01/30 00:01:33;;;;;;;22.42;13.73;;;;;;;;;;5001964;28;20049;-62
2024/01/30 00:04:00;;;;;;;24.92;14.93;;;;;;;;;;4999642;28;20053;-63
2024/01/30 00:06:27;;;;;;;27.30;14.40;;;;;;;;;;5001328;28;20062;-63
2024/01/30 00:08:54;;;;;;;25.63;13.18;;;;;;;;;;4981081;28;20066;-63
2024/01/30 00:11:22;;;;;;;27.38;14.80;;;;;;;;;;4999173;28;20058;-62
2024/01/30 00:13:50;;;;;;;25.67;13.93;;;;;;;;;;5001401;28;20413;-61
2024/01/30 00:16:24;;;;;;;27.00;14.52;;;;;;;;;;4980110;28;20069;-60
2024/01/30 00:18:51;;;;;;;26.60;15.32;;;;;;;;;;5005873;28;20061;-61
2024/01/30 00:21:19;;;;;;;26.30;14.25;;;;;;;;;;5002966;28;20046;-61
2024/01/30 00:23:46;;;;;;;26.13;14.23;;;;;;;;;;4996614;28;20050;-62
2024/01/30 00:26:14;;;;;;;30.35;14.77;;;;;;;;;;5003761;28;20056;-61
2024/01/30 00:28:41;;;;;;;29.77;16.77;;;;;;;;;;5005125;28;20554;-62
2024/01/30 00:31:12;;;;;;;33.47;16.40;;;;;;;;;;4997048;28;20057;-61
2024/01/30 00:33:39;;;;;;;28.13;15.40;;;;;;;;;;4995849;28;20053;-61
2024/01/30 00:36:07;;;;;;;30.60;16.25;;;;;;;;;;5000335;28;20054;-61
2024/01/30 00:38:34;;;;;;;28.63;16.48;;;;;;;;;;4997724;28;20049;-61
2024/01/30 00:41:01;;;;;;;35.58;16.63;;;;;;;;;;4998509;28;20053;-62
2024/01/30 00:43:29;;;;;;;29.10;16.00;;;;;;;;;;5003519;28;20053;-61
2024/01/30 00:45:59;;;;;;;34.67;16.13;;;;;;;;;;5002825;28;20467;-61
2024/01/30 00:48:27;;;;;;;34.28;15.40;;;;;;;;;;4998206;28;20125;-61
2024/01/30 00:50:55;;;;;;;29.85;15.90;;;;;;;;;;5000419;28;20060;-61
2024/01/30 00:53:22;;;;;;;27.83;16.15;;;;;;;;;;5001522;28;20132;-61
2024/01/30 00:55:49;;;;;;;32.90;16.52;;;;;;;;;;5005170;28;20053;-62
2024/01/30 00:58:18;;;;;;;29.02;16.48;;;;;;;;;;4981938;28;20046;-61
2024/01/30 01:00:46;;;;;;;30.33;15.60;;;;;;;;;;5000392;28;20282;-62
2024/01/30 01:03:13;;;;;;;29.98;16.10;;;;;;;;;;5003783;28;20550;-61
2024/01/30 01:05:42;;;;;;;34.60;16.33;;;;;;;;;;5002190;28;20055;-61
2024/01/30 01:08:09;;;;;;;25.02;14.68;;;;;;;;;;5002985;28;20764;-61
2024/01/30 01:10:36;;;;;;;30.80;15.27;;;;;;;;;;5003030;28;20406;-61
2024/01/30 01:13:04;;;;;;;31.08;15.95;;;;;;;;;;5007668;28;20046;-62
2024/01/30 01:15:31;;;;;;;27.92;15.10;;;;;;;;;;5007238;28;20057;-61
2024/01/30 01:17:58;;;;;;;29.27;15.75;;;;;;;;;;4993814;28;20050;-61
2024/01/30 01:20:25;;;;;;;32.15;15.95;;;;;;;;;;5000802;28;20389;-62
2024/01/30 01:22:54;;;;;;;32.33;16.25;;;;;;;;;;5005769;28;20054;-62
2024/01/30 01:25:21;;;;;;;31.25;16.80;;;;;;;;;;4998089;28;20161;-61
2024/01/30 01:27:51;;;;;;;27.90;15.98;;;;;;;;;;4999323;28;20053;-62
2024/01/30 01:30:21;;;;;;;28.05;16.98;;;;;;;;;;4999767;28;20085;-62
2024/01/30 01:32:54;;;;;;;28.77;15.77;;;;;;;;;;5000896;28;20404;-61
2024/01/30 01:35:22;;;;;;;29.73;15.82;;;;;;;;;;5002573;28;20120;-62
2024/01/30 01:37:54;;;;;;;28.30;15.80;;;;;;;;;;5003449;28;20052;-61
2024/01/30 01:40:23;;;;;;;27.65;15.70;;;;;;;;;;5003374;28;20085;-62
2024/01/30 01:42:51;;;;;;;27.42;14.90;;;;;;;;;;5004442;28;20053;-62
2024/01/30 01:45:19;;;;;;;33.17;16.15;;;;;;;;;;5004457;28;20053;-62
2024/01/30 01:47:47;;;;;;;28.08;15.45;;;;;;;;;;5006046;28;20052;-62
2024/01/30 01:50:14;;;;;;;31.20;17.13;;;;;;;;;;4996191;28;20072;-62
2024/01/30 01:52:42;;;;;;;29.98;16.00;;;;;;;;;;5004770;28;20043;-62
2024/01/30 01:55:10;;;;;;;26.85;15.70;;;;;;;;;;5009618;28;20045;-61
2024/01/30 01:57:38;;;;;;;32.42;16.52;;;;;;;;;;5001734;28;20476;-62
2024/01/30 02:00:07;;;;;;;32.40;16.30;;;;;;;;;;4998047;28;20165;-62
2024/01/30 02:02:36;;;;;;;28.77;17.02;;;;;;;;;;5004189;28;20447;-62
2024/01/30 02:05:04;;;;;;;33.72;16.77;;;;;;;;;;5557643;22;1234320;-66
2024/01/30 02:07:32;;;;;;;33.10;16.00;;;;;;;;;;5026714;28;20503;-66
2024/01/30 02:09:59;;;;;;;28.13;16.15;;;;;;;;;;5024851;28;20087;-66
2024/01/30 02:12:26;;;;;;;28.88;15.85;;;;;;;;;;5026941;28;20045;-66
2024/01/30 02:14:55;;;;;;;28.15;16.70;;;;;;;;;;5030114;28;20058;-66
2024/01/30 02:17:23;;;;;;;28.33;16.02;;;;;;;;;;5029724;28;20077;-66
2024/01/30 02:19:50;;;;;;;29.63;15.40;;;;;;;;;;5028772;28;20562;-66
2024/01/30 02:22:19;;;;;;;26.98;15.50;;;;;;;;;;5030210;28;20506;-66
2024/01/30 02:24:46;;;;;;;27.60;15.02;;;;;;;;;;5030787;28;20483;-66
2024/01/30 02:27:13;;;;;;;31.45;16.27;;;;;;;;;;5029263;28;20073;-66
2024/01/30 02:29:41;;;;;;;26.77;14.48;;;;;;;;;;5027390;28;20050;-66
2024/01/30 02:32:08;;;;;;;27.98;14.98;;;;;;;;;;5025475;28;20468;-66
2024/01/30 02:34:35;;;;;;;28.00;15.18;;;;;;;;;;5030337;28;20122;-66
2024/01/30 02:37:03;;;;;;;26.38;15.07;;;;;;;;;;5028941;28;20133;-66
2024/01/30 02:39:31;;;;;;;26.52;15.00;;;;;;;;;;5027268;28;20124;-66
2024/01/30 02:41:59;;;;;;;28.27;15.27;;;;;;;;;;5030035;28;20484;-66
2024/01/30 02:44:26;;;;;;;26.00;15.80;;;;;;;;;;5029788;28;20166;-66
2024/01/30 02:46:54;;;;;;;27.60;15.57;;;;;;;;;;5027841;28;20049;-66
2024/01/30 02:49:21;;;;;;;28.38;15.43;;;;;;;;;;5028011;28;20059;-66
2024/01/30 02:51:48;;;;;;;24.92;14.60;;;;;;;;;;5027626;28;20049;-66
2024/01/30 02:54:16;;;;;;;24.55;14.68;;;;;;;;;;5025247;28;20164;-66
2024/01/30 02:56:45;;;;;;;23.42;14.75;;;;;;;;;;5012164;28;20045;-66
2024/01/30 02:59:12;;;;;;;25.83;14.13;;;;;;;;;;5028340;28;20061;-66
2024/01/30 03:01:46;;;;;;;27.83;15.18;;;;;;;;;;5026727;28;20045;-66
2024/01/30 03:04:13;;;;;;;26.77;14.23;;;;;;;;;;5029087;28;20538;-66
2024/01/30 03:06:40;;;;;;;25.02;14.40;;;;;;;;;;5029466;28;20049;-66
2024/01/30 03:09:07;;;;;;;23.27;14.65;;;;;;;;;;5027923;28;20049;-67
2024/01/30 03:11:34;;;;;;;26.80;14.43;;;;;;;;;;5029031;28;20045;-66
2024/01/30 03:14:04;;;;;;;28.20;14.40;;;;;;;;;;5027888;28;20045;-67
2024/01/30 03:16:31;;;;;;;24.63;13.60;;;;;;;;;;5028132;28;20400;-67
2024/01/30 03:18:58;;;;;;;27.23;14.30;;;;;;;;;;5027271;28;20049;-66
2024/01/30 03:21:25;;;;;;;25.15;13.35;;;;;;;;;;5028412;28;20041;-66
2024/01/30 03:23:53;;;;;;;24.48;13.65;;;;;;;;;;5026616;28;20049;-66
2024/01/30 03:26:20;;;;;;;21.48;13.38;;;;;;;;;;5028685;28;20490;-67
2024/01/30 03:28:47;;;;;;;21.83;12.80;;;;;;;;;;5028163;28;20534;-66
2024/01/30 03:31:17;;;;;;;25.48;13.10;;;;;;;;;;5026848;28;20050;-66
2024/01/30 03:33:44;;;;;;;22.80;12.50;;;;;;;;;;5025718;28;20054;-66
2024/01/30 03:36:12;;;;;;;23.83;13.20;;;;;;;;;;5010844;28;20061;-66
2024/01/30 03:38:40;;;;;;;25.63;13.88;;;;;;;;;;5027543;28;20060;-66
2024/01/30 03:41:09;;;;;;;24.15;13.55;;;;;;;;;;5027930;28;20454;-66
2024/01/30 03:43:36;;;;;;;22.92;13.48;;;;;;;;;;5019377;28;20068;-67
2024/01/30 03:46:04;;;;;;;23.38;13.35;;;;;;;;;;5027372;28;20571;-66
2024/01/30 03:48:33;;;;;;;24.20;14.65;;;;;;;;;;5028053;28;20045;-67
2024/01/30 03:51:00;;;;;;;23.75;14.57;;;;;;;;;;5027773;28;20045;-66
2024/01/30 03:53:27;;;;;;;25.20;13.73;;;;;;;;;;5028529;28;20038;-66
2024/01/30 03:55:54;;;;;;;32.17;14.60;;;;;;;;;;5027284;28;20045;-66
2024/01/30 03:58:22;;;;;;;24.83;14.40;;;;;;;;;;5026763;28;20104;-66
2024/01/30 04:00:49;;;;;;;26.00;14.20;;;;;;;;;;5008310;28;20064;-66
2024/01/30 04:03:16;;;;;;;24.90;14.68;;;;;;;;;;5004363;28;20054;-66
2024/01/30 04:05:45;;;;;;;26.70;13.85;;;;;;;;;;5025261;28;20060;-66
2024/01/30 04:08:12;;;;;;;27.15;14.77;;;;;;;;;;5027442;28;20136;-66
2024/01/30 04:10:39;;;;;;;25.20;13.60;;;;;;;;;;5027010;28;20041;-66
2024/01/30 04:13:07;;;;;;;23.92;13.27;;;;;;;;;;5026638;28;20057;-66
2024/01/30 04:15:34;;;;;;;29.40;14.23;;;;;;;;;;5026421;28;20049;-66
2024/01/30 04:18:02;;;;;;;24.38;13.57;;;;;;;;;;5010505;28;20420;-66
2024/01/30 04:20:29;;;;;;;24.45;13.50;;;;;;;;;;5027065;28;20129;-65
2024/01/30 04:22:58;;;;;;;25.00;12.85;;;;;;;;;;5022730;28;20078;-65
2024/01/30 04:25:25;;;;;;;22.98;12.73;;;;;;;;;;5027905;28;20049;-65
2024/01/30 04:27:52;;;;;;;20.20;12.00;;;;;;;;;;5024113;28;20144;-66
2024/01/30 04:30:19;;;;;;;27.05;12.75;;;;;;;;;;5026822;28;20057;-66
2024/01/30 04:32:47;;;;;;;21.15;12.63;;;;;;;;;;5024052;28;20045;-65
2024/01/30 04:35:14;;;;;;;23.38;13.52;;;;;;;;;;5026875;28;20049;-65
2024/01/30 04:37:41;;;;;;;25.98;12.75;;;;;;;;;;5026774;28;20060;-66
2024/01/30 04:40:10;;;;;;;19.08;12.10;;;;;;;;;;5005995;28;20053;-66
2024/01/30 04:42:37;;;;;;;27.65;12.40;;;;;;;;;;5026782;28;20695;-66
2024/01/30 04:45:07;;;;;;;22.02;11.95;;;;;;;;;;5016311;28;20528;-66
2024/01/30 04:47:34;;;;;;;22.45;12.15;;;;;;;;;;5026576;28;20107;-65
2024/01/30 04:50:04;;;;;;;23.50;12.27;;;;;;;;;;5025990;28;20054;-65
2024/01/30 04:52:31;;;;;;;19.67;11.82;;;;;;;;;;5027210;28;20041;-65
2024/01/30 04:54:59;;;;;;;22.75;12.10;;;;;;;;;;5025653;28;20053;-66
2024/01/30 04:57:27;;;;;;;22.15;11.68;;;;;;;;;;5009135;28;20065;-65
2024/01/30 04:59:55;;;;;;;21.90;12.23;;;;;;;;;;5025582;28;20061;-65
2024/01/30 05:02:22;;;;;;;21.05;12.10;;;;;;;;;;5022109;28;20056;-65
2024/01/30 05:04:49;;;;;;;22.25;11.45;;;;;;;;;;5008990;28;20064;-65
2024/01/30 05:07:17;;;;;;;22.67;11.90;;;;;;;;;;5025666;28;20050;-65
2024/01/30 05:09:44;;;;;;;23.00;11.95;;;;;;;;;;5009876;28;20431;-66
2024/01/30 05:12:11;;;;;;;18.73;10.80;;;;;;;;;;5023708;28;20064;-65
2024/01/30 05:14:40;;;;;;;18.63;11.32;;;;;;;;;;5026848;28;20230;-65
2024/01/30 05:17:07;;;;;;;21.50;11.65;;;;;;;;;;5026628;28;20057;-66
2024/01/30 05:19:35;;;;;;;22.30;12.00;;;;;;;;;;5026051;28;20077;-65
2024/01/30 05:22:02;;;;;;;19.67;11.55;;;;;;;;;;5027093;28;20042;-66
2024/01/30 05:24:29;;;;;;;18.70;10.48;;;;;;;;;;5023531;28;20062;-65
2024/01/30 05:26:56;;;;;;;18.73;11.73;;;;;;;;;;5024244;28;20049;-65
2024/01/30 05:29:24;;;;;;;18.73;10.80;;;;;;;;;;5007365;28;20128;-66
2024/01/30 05:31:52;;;;;;;25.35;10.98;;;;;;;;;;5025544;28;20061;-66
2024/01/30 05:34:20;;;;;;;19.65;10.73;;;;;;;;;;5025886;28;20419;-66
2024/01/30 05:36:47;;;;;;;22.00;11.10;;;;;;;;;;5026568;28;20500;-66
2024/01/30 05:39:14;;;;;;;22.17;11.18;;;;;;;;;;5025264;28;20049;-66
2024/01/30 05:41:41;;;;;;;21.95;11.85;;;;;;;;;;5029015;28;20053;-66
2024/01/30 05:44:09;;;;;;;18.10;10.70;;;;;;;;;;5024767;28;20057;-66
2024/01/30 05:46:37;;;;;;;21.73;10.85;;;;;;;;;;5006749;28;20058;-66
2024/01/30 05:49:08;;;;;;;17.95;10.80;;;;;;;;;;5026695;28;20380;-66
2024/01/30 05:51:35;;;;;;;21.35;11.02;;;;;;;;;;5002649;28;20427;-66
2024/01/30 05:54:03;;;;;;;20.13;10.90;;;;;;;;;;5025094;28;20059;-66
2024/01/30 05:56:30;;;;;;;20.63;10.18;;;;;;;;;;5029085;28;20057;-66
2024/01/30 05:58:57;;;;;;;17.08;10.50;;;;;;;;;;5029668;28;20415;-66
2024/01/30 06:01:25;;;;;;;17.40;9.85;;;;;;;;;;5026547;28;20092;-66
2024/01/30 06:03:52;;;;;;;17.38;10.55;;;;;;;;;;5028103;28;20041;-66
2024/01/30 06:06:21;;;;;;;17.48;10.40;;;;;;;;;;5027346;28;20403;-66
2024/01/30 06:08:48;;;;;;;18.33;10.68;;;;;;;;;;5028918;28;20057;-66
2024/01/30 06:11:15;;;;;;;19.30;10.88;;;;;;;;;;5030254;28;20049;-66
2024/01/30 06:13:42;;;;;;;21.52;10.73;;;;;;;;;;5029885;28;20048;-66
2024/01/30 06:16:12;;;;;;;24.30;11.40;;;;;;;;;;5030247;28;20049;-67
2024/01/30 06:18:39;;;;;;;18.40;10.57;;;;;;;;;;5029012;28;20045;-66
2024/01/30 06:21:06;;;;;;;22.85;10.80;;;;;;;;;;5030133;28;20061;-65
2024/01/30 06:23:35;;;;;;;18.63;10.27;;;;;;;;;;5028449;28;20128;-66
2024/01/30 06:26:02;;;;;;;24.33;10.48;;;;;;;;;;5028827;28;20068;-66
2024/01/30 06:28:30;;;;;;;20.92;10.43;;;;;;;;;;5029095;28;20508;-66
2024/01/30 06:30:57;;;;;;;22.48;10.80;;;;;;;;;;5027454;28;20050;-66
2024/01/30 06:33:24;;;;;;;22.13;10.20;;;;;;;;;;5029629;28;20507;-66
2024/01/30 06:35:51;;;;;;;19.33;11.02;;;;;;;;;;5029407;28;20515;-66
2024/01/30 06:38:19;;;;;;;19.85;10.25;;;;;;;;;;5029941;28;20057;-66
2024/01/30 06:40:47;;;;;;;17.05;9.65;;;;;;;;;;5028474;28;20506;-66
2024/01/30 06:43:15;;;;;;;22.45;11.23;;;;;;;;;;5027542;28;20617;-66
2024/01/30 06:45:43;;;;;;;19.25;10.57;;;;;;;;;;5027544;28;20479;-67
2024/01/30 06:48:10;;;;;;;21.05;10.10;;;;;;;;;;5026537;28;20060;-66
2024/01/30 06:50:37;;;;;;;18.35;9.98;;;;;;;;;;5028467;28;20049;-66
2024/01/30 06:53:05;;;;;;;19.70;10.75;;;;;;;;;;5028529;28;20055;-66
2024/01/30 06:55:32;;;;;;;17.42;10.40;;;;;;;;;;5029224;28;20506;-66
2024/01/30 06:58:01;;;;;;;17.48;10.85;;;;;;;;;;5028892;28;20570;-67
2024/01/30 07:00:28;;;;;;;18.85;9.93;;;;;;;;;;5028972;28;20049;-66
2024/01/30 07:02:55;;;;;;;20.02;10.88;;;;;;;;;;5028766;28;20053;-66
2024/01/30 07:05:22;;;;;;;15.57;10.15;;;;;;;;;;5026701;28;20504;-66
2024/01/30 07:07:52;;;;;;;17.25;9.95;;;;;;;;;;5026183;28;20055;-66
2024/01/30 07:10:23;;;;;;;21.25;10.10;;;;;;;;;;5010824;28;20057;-67
2024/01/30 07:12:51;;;;;;;19.92;10.38;;;;;;;;;;5028032;28;20132;-67
2024/01/30 07:15:20;;;;;;;25.55;10.52;;;;;;;;;;5026799;28;20042;-66
2024/01/30 07:17:47;;;;;;;20.35;10.55;;;;;;;;;;5028452;28;20084;-67
2024/01/30 07:20:15;;;;;;;21.27;9.82;;;;;;;;;;5028245;28;20049;-66
2024/01/30 07:22:42;;;;;;;16.95;9.85;;;;;;;;;;5009934;28;20053;-66
2024/01/30 07:25:10;;;;;;;23.40;10.98;;;;;;;;;;5026161;28;20063;-66
2024/01/30 07:27:37;;;;;;;20.75;11.23;;;;;;;;;;5028406;28;20045;-67
2024/01/30 07:30:05;;;;;;;19.20;10.48;;;;;;;;;;5027968;28;20049;-66
2024/01/30 07:32:33;;;;;;;17.48;10.15;;;;;;;;;;5026997;28;20053;-66
2024/01/30 07:35:01;;;;;;;19.15;11.23;;;;;;;;;;5028598;28;20041;-66
2024/01/30 07:37:28;;;;;;;18.35;10.23;;;;;;;;;;5026794;28;20427;-66
2024/01/30 07:39:56;;;;;;;19.80;10.43;;;;;;;;;;5025996;28;20053;-66
2024/01/30 07:42:23;;;;;;;20.20;10.57;;;;;;;;;;5011621;28;20499;-66
2024/01/30 07:44:50;;;;;;;17.20;11.25;;;;;;;;;;5024009;28;20050;-66
2024/01/30 07:47:17;;;;;;;19.17;10.27;;;;;;;;;;5024158;28;20046;-66
2024/01/30 07:49:46;;;;;;;20.17;10.88;;;;;;;;;;5008931;28;20050;-67
2024/01/30 07:52:13;;;;;;;16.40;10.63;;;;;;;;;;5009899;28;20515;-66
2024/01/30 07:54:50;;;;;;;18.70;11.10;;;;;;;;;;5027331;28;20054;-66
2024/01/30 07:57:17;;;;;;;17.83;10.93;;;;;;;;;;5023243;28;20045;-66
2024/01/30 07:59:45;;;;;;;20.95;10.50;;;;;;;;;;5025823;28;20049;-66
2024/01/30 08:02:12;;;;;;;18.42;10.60;;;;;;;;;;5009087;28;20427;-66
2024/01/30 08:04:39;;;;;;;21.02;10.85;;;;;;;;;;5026655;28;20049;-66
2024/01/30 08:07:08;;;;;;;19.77;11.20;;;;;;;;;;5025983;28;20065;-66
2024/01/30 08:09:35;;;;;;;20.17;10.82;;;;;;;;;;5027979;28;20061;-66
2024/01/30 08:12:02;;;;;;;19.95;10.77;;;;;;;;;;5027671;28;20484;-66
2024/01/30 08:14:29;;;;;;;21.17;10.60;;;;;;;;;;5010385;28;20053;-66
2024/01/30 08:16:57;;;;;;;16.52;10.00;;;;;;;;;;5027660;28;20156;-66
2024/01/30 08:19:24;;;;;;;20.63;10.32;;;;;;;;;;5008695;28;20049;-66
2024/01/30 08:21:51;;;;;;;17.33;10.52;;;;;;;;;;5025787;28;20049;-66
2024/01/30 08:24:20;;;;;;;19.48;10.25;;;;;;;;;;5026848;28;20050;-67
2024/01/30 08:26:47;;;;;;;24.08;11.10;;;;;;;;;;5026525;28;20052;-66
2024/01/30 08:29:14;;;;;;;18.63;9.57;;;;;;;;;;5026882;28;20049;-66
2024/01/30 08:31:41;;;;;;;17.88;9.52;;;;;;;;;;5025669;28;20061;-66
2024/01/30 08:34:09;;;;;;;17.33;10.13;;;;;;;;;;5027222;28;20060;-67
2024/01/30 08:36:36;;;;;;;16.95;9.75;;;;;;;;;;5026572;28;20049;-66
2024/01/30 08:39:05;;;;;;;24.67;9.85;;;;;;;;;;5026404;28;20432;-66
2024/01/30 08:41:33;;;;;;;17.05;9.57;;;;;;;;;;5028802;28;20051;-66
2024/01/30 08:44:01;;;;;;;19.05;9.88;;;;;;;;;;5025911;28;20056;-66
2024/01/30 08:46:28;;;;;;;19.20;9.38;;;;;;;;;;5028436;28;20565;-66
2024/01/30 08:48:55;;;;;;;19.80;9.32;;;;;;;;;;5011220;28;20064;-66
2024/01/30 08:51:22;;;;;;;15.52;8.93;;;;;;;;;;5026332;28;20045;-66
2024/01/30 08:53:50;;;;;;;21.50;9.68;;;;;;;;;;5010349;28;20063;-66
2024/01/30 08:56:17;;;;;;;18.38;9.57;;;;;;;;;;5009223;28;20454;-66
2024/01/30 08:58:45;;;;;;;20.40;9.57;;;;;;;;;;5027274;28;20052;-66
2024/01/30 09:01:13;;;;;;;15.63;8.98;;;;;;;;;;5026612;28;20061;-66
2024/01/30 09:03:41;;;;;;;19.27;9.30;;;;;;;;;;5027882;28;20506;-66
2024/01/30 09:06:09;;;;;;;18.33;9.65;;;;;;;;;;5025357;28;20065;-67
2024/01/30 09:08:37;;;;;;;19.13;9.15;;;;;;;;;;5027788;28;20045;-66
2024/01/30 09:11:10;;;;;;;16.40;9.05;;;;;;;;;;5025746;28;20037;-67
2024/01/30 09:13:37;;;;;;;17.60;9.75;;;;;;;;;;5026474;28;20510;-66
2024/01/30 09:16:06;;;;;;;15.32;8.63;;;;;;;;;;5010432;28;20140;-67
2024/01/30 09:18:34;;;;;;;17.35;8.77;;;;;;;;;;5026196;28;20053;-66
2024/01/30 09:21:01;;;;;;;23.45;8.98;;;;;;;;;;5026485;28;20137;-66
2024/01/30 09:23:28;;;;;;;17.92;9.00;;;;;;;;;;5026724;28;20050;-66
2024/01/30 09:25:56;;;;;;;19.50;9.63;;;;;;;;;;5026873;28;20057;-66
2024/01/30 09:28:23;;;;;;;18.05;9.52;;;;;;;;;;5027432;28;20049;-66
2024/01/30 09:30:50;;;;;;;20.70;9.02;;;;;;;;;;5027800;28;20388;-66
2024/01/30 09:33:19;;;;;;;17.77;8.60;;;;;;;;;;5012869;28;20057;-66
2024/01/30 09:35:47;;;;;;;17.92;9.43;;;;;;;;;;5028217;28;20057;-66
2024/01/30 09:38:14;;;;;;;15.77;9.65;;;;;;;;;;5031588;28;20145;-66
2024/01/30 09:40:42;;;;;;;15.48;8.88;;;;;;;;;;5030666;28;20130;-66
2024/01/30 09:43:09;;;;;;;20.13;9.38;;;;;;;;;;5027636;28;20164;-66
2024/01/30 09:45:37;;;;;;;20.25;10.75;;;;;;;;;;5028442;28;20046;-67
2024/01/30 09:48:05;;;;;;;19.65;9.60;;;;;;;;;;5026567;28;20045;-66
2024/01/30 09:50:36;;;;;;;20.20;9.60;;;;;;;;;;5030384;28;20137;-66
2024/01/30 09:53:03;;;;;;;17.33;9.00;;;;;;;;;;5028873;28;20089;-66
2024/01/30 09:55:30;;;;;;;17.42;8.93;;;;;;;;;;5010603;28;20496;-66
2024/01/30 09:57:58;;;;;;;19.48;9.77;;;;;;;;;;5025593;28;20048;-66
2024/01/30 10:00:27;;;;;;;22.27;10.02;;;;;;;;;;5030801;28;20049;-66
2024/01/30 10:02:54;;;;;;;20.63;9.55;;;;;;;;;;5026037;28;20049;-66
2024/01/30 10:05:21;;;;;;;22.80;9.55;;;;;;;;;;5030321;28;20049;-66
2024/01/30 10:07:54;;;;;;;22.58;9.20;;;;;;;;;;5028183;28;20045;-66
2024/01/30 10:10:23;;;;;;;16.08;8.52;;;;;;;;;;5030770;28;20574;-66
2024/01/30 10:12:50;;;;;;;22.08;8.00;;;;;;;;;;5029963;28;20511;-66
2024/01/30 10:15:18;;;;;;;15.70;7.70;;;;;;;;;;5030433;28;20045;-66
2024/01/30 10:17:46;;;;;;;17.77;7.30;;;;;;;;;;5032969;28;20049;-66
2024/01/30 10:20:13;;;;;;;17.52;6.85;;;;;;;;;;5026324;28;20075;-66
2024/01/30 10:22:42;;;;;;;20.25;6.85;;;;;;;;;;5031062;28;20057;-66
2024/01/30 10:25:11;;;;;;;15.02;5.63;;;;;;;;;;5027158;28;20075;-66
2024/01/30 10:27:41;;;;;;;19.90;5.32;;;;;;;;;;5027810;28;20099;-66
2024/01/30 10:30:09;;;;;;;14.52;4.88;;;;;;;;;;5029544;28;20123;-66
2024/01/30 10:32:36;;;;;;;20.83;4.60;;;;;;;;;;5029150;28;20049;-66
2024/01/30 10:35:04;;;;;;;20.80;4.45;;;;;;;;;;5029879;28;20045;-66
2024/01/30 10:37:32;;;;;;;17.13;5.18;;;;;;;;;;5030182;28;20041;-66
2024/01/30 10:40:04;;;;;;;13.80;3.60;;;;;;;;;;5029665;28;20068;-66
2024/01/30 10:42:33;;;;;;;16.27;3.30;;;;;;;;;;5029916;28;20045;-66
2024/01/30 10:45:04;;;;;;;10.95;2.45;;;;;;;;;;5028107;28;20052;-67
2024/01/30 10:47:31;;;;;;;16.33;3.17;;;;;;;;;;5012530;28;20041;-66
2024/01/30 10:49:58;;;;;;;10.75;2.20;;;;;;;;;;5029545;28;20080;-66
2024/01/30 10:52:26;;;;;;;10.88;2.42;;;;;;;;;;5024530;28;20065;-66
2024/01/30 10:54:53;;;;;;;14.95;2.50;;;;;;;;;;5029357;28;20053;-66
2024/01/30 10:57:21;;;;;;;13.02;2.58;;;;;;;;;;5012428;28;20064;-66
2024/01/30 10:59:50;;;;;;;14.98;2.63;;;;;;;;;;5029573;28;20056;-67
2024/01/30 11:02:17;;;;;;;19.27;2.67;;;;;;;;;;5030121;28;20041;-66
2024/01/30 11:04:45;;;;;;;14.93;2.75;;;;;;;;;;5029384;28;20049;-66
2024/01/30 11:07:18;;;;;;;12.65;2.45;;;;;;;;;;5029781;28;20064;-66
2024/01/30 11:09:51;;;;;;;12.52;2.33;;;;;;;;;;5029362;28;20505;-66
2024/01/30 11:12:23;;;;;;;9.85;2.03;;;;;;;;;;5028906;28;20049;-66
2024/01/30 11:14:51;;;;;;;9.70;2.08;;;;;;;;;;5029354;28;20064;-66
2024/01/30 11:17:19;;;;;;;13.25;3.47;;;;;;;;;;5033304;28;20133;-67
2024/01/30 11:19:48;;;;;;;8.63;2.20;;;;;;;;;;5029125;28;20492;-66
2024/01/30 11:22:15;;;;;;;12.50;2.17;;;;;;;;;;5029628;28;20507;-66
2024/01/30 11:24:42;;;;;;;16.50;2.17;;;;;;;;;;5029691;28;20045;-66
2024/01/30 11:27:11;;;;;;;11.65;2.08;;;;;;;;;;5030171;28;20057;-66
2024/01/30 11:29:38;;;;;;;11.30;2.10;;;;;;;;;;5028961;28;20053;-66
2024/01/30 11:32:07;;;;;;;13.50;1.80;;;;;;;;;;5028465;28;20403;-66
2024/01/30 11:34:37;;;;;;;10.52;1.83;;;;;;;;;;5028782;28;20045;-66
2024/01/30 11:37:05;;;;;;;13.13;1.80;;;;;;;;;;5029069;28;20076;-66
2024/01/30 11:39:32;;;;;;;10.38;2.35;;;;;;;;;;5028430;28;20048;-66
2024/01/30 11:42:00;;;;;;;10.52;1.92;;;;;;;;;;5027175;28;20060;-66
2024/01/30 11:44:28;;;;;;;8.77;1.88;;;;;;;;;;5029641;28;20400;-66
2024/01/30 11:46:55;;;;;;;8.02;1.65;;;;;;;;;;5028428;28;20049;-66
2024/01/30 11:49:25;;;;;;;8.25;1.95;;;;;;;;;;5029530;28;20053;-66
2024/01/30 11:51:53;;;;;;;11.15;2.03;;;;;;;;;;5028113;28;20512;-66
2024/01/30 11:54:20;;;;;;;8.77;1.70;;;;;;;;;;5028798;28;20072;-66
2024/01/30 11:56:47;;;;;;;11.85;2.38;;;;;;;;;;5028369;28;20045;-66
2024/01/30 11:59:15;;;;;;;10.68;1.95;;;;;;;;;;5029458;28;20136;-66
2024/01/30 12:01:42;;;;;;;10.55;2.40;;;;;;;;;;5028314;28;20059;-66
2024/01/30 12:04:11;;;;;;;9.98;2.28;;;;;;;;;;5028220;28;20587;-66
2024/01/30 12:06:40;;;;;;;7.20;1.70;;;;;;;;;;5028164;28;20045;-66
2024/01/30 12:09:08;;;;;;;9.65;1.80;;;;;;;;;;5028183;28;20132;-65
2024/01/30 12:11:45;;;;;;;10.35;1.73;;;;;;;;;;5028417;28;20510;-65
2024/01/30 12:14:13;;;;;;;7.45;1.75;;;;;;;;;;5021280;28;20089;-65
2024/01/30 12:16:41;;;;;;;7.43;1.70;;;;;;;;;;5027596;28;20056;-66
2024/01/30 12:19:08;;;;;;;8.70;1.13;;;;;;;;;;5028227;28;20076;-66
2024/01/30 12:21:36;;;;;;;7.07;1.60;;;;;;;;;;5027845;28;20050;-66
2024/01/30 12:24:07;;;;;;;16.05;2.05;;;;;;;;;;5028111;28;20056;-66
2024/01/30 12:26:34;;;;;;;7.68;1.85;;;;;;;;;;5009507;28;20469;-66
2024/01/30 12:29:02;;;;;;;8.23;1.58;;;;;;;;;;5028421;28;20489;-66
2024/01/30 12:31:30;;;;;;;10.65;1.90;;;;;;;;;;5026626;28;20052;-66
2024/01/30 12:33:57;;;;;;;7.38;1.83;;;;;;;;;;5026475;28;20049;-66
2024/01/30 12:36:24;;;;;;;9.32;1.50;;;;;;;;;;5010249;28;20049;-66
2024/01/30 12:38:51;;;;;;;6.70;1.30;;;;;;;;;;5027668;28;20049;-66
2024/01/30 12:41:21;;;;;;;8.77;2.00;;;;;;;;;;5028622;28;20059;-66
2024/01/30 12:43:48;;;;;;;6.60;1.40;;;;;;;;;;5027754;28;20485;-67
2024/01/30 12:46:18;;;;;;;7.65;1.45;;;;;;;;;;5028319;28;20045;-66
2024/01/30 12:48:45;;;;;;;8.52;1.48;;;;;;;;;;5028127;28;20052;-66
2024/01/30 12:51:13;;;;;;;7.90;1.55;;;;;;;;;;5021084;28;20053;-66
2024/01/30 12:53:40;;;;;;;9.98;1.15;;;;;;;;;;5027711;28;20057;-66
2024/01/30 12:56:07;;;;;;;5.93;1.52;;;;;;;;;;5028248;28;20096;-66
2024/01/30 12:58:36;;;;;;;9.45;1.38;;;;;;;;;;5027891;28;20132;-66
2024/01/30 13:01:03;;;;;;;6.80;1.17;;;;;;;;;;5027914;28;20084;-66
2024/01/30 13:03:31;;;;;;;10.18;1.60;;;;;;;;;;5009908;28;20061;-66
2024/01/30 13:05:58;;;;;;;6.15;1.40;;;;;;;;;;5030764;28;20057;-67
2024/01/30 13:08:25;;;;;;;7.28;1.80;;;;;;;;;;5032140;28;20049;-67
2024/01/30 13:10:52;;;;;;;8.75;1.52;;;;;;;;;;5031979;28;20049;-67
2024/01/30 13:13:20;;;;;;;4.80;1.25;;;;;;;;;;5028875;28;20096;-67
2024/01/30 13:15:48;;;;;;;8.65;1.40;;;;;;;;;;5027526;28;20403;-67
2024/01/30 13:18:16;;;;;;;5.30;1.38;;;;;;;;;;5013166;28;20053;-67
2024/01/30 13:20:43;;;;;;;4.35;1.45;;;;;;;;;;5031161;28;20510;-67
2024/01/30 13:23:10;;;;;;;5.13;1.20;;;;;;;;;;5031756;28;20464;-67
2024/01/30 13:25:38;;;;;;;6.00;1.20;;;;;;;;;;5032195;28;20477;-67
2024/01/30 13:28:05;;;;;;;4.88;1.10;;;;;;;;;;5031441;28;20056;-67
2024/01/30 13:30:32;;;;;;;4.63;0.93;;;;;;;;;;5031988;28;20045;-67
2024/01/30 13:33:02;;;;;;;5.50;1.30;;;;;;;;;;5030433;28;20054;-67
2024/01/30 13:35:29;;;;;;;6.55;2.20;;;;;;;;;;5031871;28;20053;-67
2024/01/30 13:37:57;;;;;;;3.42;1.45;;;;;;;;;;5030825;28;20068;-67
2024/01/30 13:40:24;;;;;;;10.32;1.50;;;;;;;;;;5031300;28;20050;-67
2024/01/30 13:42:52;;;;;;;6.78;1.50;;;;;;;;;;5031707;28;20491;-67
2024/01/30 13:45:19;;;;;;;6.53;2.00;;;;;;;;;;5031053;28;20060;-68
2024/01/30 13:47:46;;;;;;;8.43;1.70;;;;;;;;;;5017589;28;20056;-67
2024/01/30 13:50:16;;;;;;;9.60;1.50;;;;;;;;;;5031285;28;20053;-67
2024/01/30 13:52:44;;;;;;;4.68;1.38;;;;;;;;;;5031818;28;20061;-67
2024/01/30 13:55:11;;;;;;;6.85;1.70;;;;;;;;;;5031135;28;20052;-67
2024/01/30 13:57:38;;;;;;;7.75;1.80;;;;;;;;;;5032014;28;20056;-67
2024/01/30 14:00:06;;;;;;;7.55;1.60;;;;;;;;;;5013362;28;21200;-67
2024/01/30 14:02:34;;;;;;;6.35;1.70;;;;;;;;;;5031212;28;20049;-67
2024/01/30 14:05:01;;;;;;;10.20;1.70;;;;;;;;;;5010748;28;20141;-67
2024/01/30 14:07:30;;;;;;;6.00;1.80;;;;;;;;;;5030646;28;20423;-67
2024/01/30 14:09:57;;;;;;;4.45;1.60;;;;;;;;;;5030910;28;20056;-67
2024/01/30 14:12:24;;;;;;;6.88;1.80;;;;;;;;;;5031053;28;20052;-67
2024/01/30 14:14:51;;;;;;;7.63;2.70;;;;;;;;;;5030328;28;20060;-67
2024/01/30 14:17:19;;;;;;;5.95;2.00;;;;;;;;;;5030308;28;20046;-67
2024/01/30 14:19:46;;;;;;;12.35;2.20;;;;;;;;;;5030144;28;20104;-67
2024/01/30 14:22:13;;;;;;;7.95;2.00;;;;;;;;;;5031499;28;20506;-68
2024/01/30 14:24:42;;;;;;;6.50;1.73;;;;;;;;;;5030593;28;20061;-67
2024/01/30 14:27:09;;;;;;;8.73;2.10;;;;;;;;;;5030837;28;20053;-67